createdAt,value
2023-02-15T00:03:39.929Z,50.40
2023-02-15T00:08:44.018Z,50.60
2023-02-15T00:13:48.157Z,51.00
2023-02-15T00:18:53.717Z,50.80
2023-02-15T00:23:58.995Z,50.80
2023-02-15T00:29:03.797Z,51.00
2023-02-15T00:34:28.843Z,50.80
2023-02-15T00:39:34.536Z,51.00
2023-02-15T00:44:38.956Z,51.10
2023-02-15T00:49:43.273Z,50.90
2023-02-15T00:54:47.428Z,51.60
2023-02-15T00:59:51.357Z,51.70
2023-02-15T01:04:55.274Z,51.60
2023-02-15T01:10:00.562Z,51.90
2023-02-15T01:15:04.823Z,51.60
2023-02-15T01:20:09.629Z,51.50
2023-02-15T01:25:14.248Z,51.20
2023-02-15T01:30:19.207Z,51.60
2023-02-15T01:35:23.528Z,52.10
2023-02-15T01:40:28.031Z,52.30
2023-02-15T01:45:34.324Z,52.30
2023-02-15T01:50:43.197Z,52.20
2023-02-15T01:55:56.536Z,52.30
2023-02-15T02:01:02.558Z,52.50
2023-02-15T02:06:06.698Z,52.60
2023-02-15T02:11:15.357Z,52.60
2023-02-15T02:16:41.601Z,52.60
2023-02-15T02:22:10.997Z,52.10
2023-02-15T02:27:49.098Z,52.50
2023-02-15T02:33:26.281Z,52.00
2023-02-15T02:38:49.148Z,51.40
2023-02-15T02:44:05.224Z,51.30
2023-02-15T02:49:09.176Z,51.10
2023-02-15T02:54:13.385Z,50.80
2023-02-15T02:59:32.596Z,50.30
2023-02-15T03:04:39.513Z,50.20
2023-02-15T03:09:48.439Z,50.10
2023-02-15T03:15:07.996Z,50.00
2023-02-15T03:20:22.901Z,49.60
2023-02-15T03:25:33.972Z,49.50
2023-02-15T03:30:40.913Z,49.50
2023-02-15T03:35:55.176Z,49.60
2023-02-15T03:41:13.026Z,49.90
2023-02-15T03:46:21.887Z,49.50
2023-02-15T03:51:36.347Z,49.30
2023-02-15T03:56:42.888Z,49.50
2023-02-15T04:02:21.124Z,49.30
2023-02-15T04:07:25.117Z,49.00
2023-02-15T04:12:29.092Z,48.60
2023-02-15T04:17:33.321Z,48.30
2023-02-15T04:22:56.291Z,48.40
2023-02-15T04:28:00.330Z,48.90
2023-02-15T04:33:04.360Z,48.80
2023-02-15T04:38:08.491Z,49.10
2023-02-15T04:43:12.830Z,48.60
2023-02-15T04:48:17.716Z,48.50
2023-02-15T04:53:21.608Z,48.60
2023-02-15T04:58:25.753Z,48.50
2023-02-15T05:03:29.875Z,48.80
2023-02-15T05:08:33.811Z,48.50
2023-02-15T05:13:37.844Z,48.80
2023-02-15T05:18:41.972Z,48.60
2023-02-15T05:23:47.325Z,49.10
2023-02-15T05:28:51.389Z,49.20
2023-02-15T05:33:55.712Z,49.70
2023-02-15T05:38:59.771Z,50.10
2023-02-15T05:44:04.404Z,50.10
2023-02-15T05:49:08.535Z,50.70
2023-02-15T05:54:12.837Z,50.60
2023-02-15T05:59:17.108Z,50.60
2023-02-15T06:04:21.132Z,51.20
2023-02-15T06:09:25.278Z,51.50
2023-02-15T06:14:29.308Z,51.60
2023-02-15T06:19:33.665Z,51.50
2023-02-15T06:24:37.683Z,52.00
2023-02-15T06:29:41.628Z,52.60
2023-02-15T06:34:47.064Z,52.30
2023-02-15T06:39:54.173Z,52.50
2023-02-15T06:44:58.623Z,52.60
2023-02-15T06:50:02.856Z,52.70
2023-02-15T06:55:07.563Z,52.60
2023-02-15T07:00:12.446Z,51.10
2023-02-15T07:05:16.907Z,50.70
2023-02-15T07:10:20.927Z,50.40
2023-02-15T07:15:25.170Z,50.10
2023-02-15T07:20:30.428Z,49.10
2023-02-15T07:25:34.355Z,49.00
2023-02-15T07:30:38.801Z,49.00
2023-02-15T07:35:53.157Z,49.80
2023-02-15T07:41:05.310Z,50.70
2023-02-15T07:46:12.881Z,50.40
2023-02-15T07:51:17.118Z,49.70
2023-02-15T07:56:21.193Z,49.70
2023-02-15T08:01:33.889Z,49.70
2023-02-15T08:06:38.830Z,49.50
2023-02-15T08:11:42.865Z,49.90
2023-02-15T08:16:52.136Z,49.90
2023-02-15T08:22:07.565Z,50.30
2023-02-15T08:27:12.475Z,50.70
2023-02-15T08:32:16.564Z,50.90
2023-02-15T08:37:21.057Z,51.10
2023-02-15T08:42:25.046Z,51.60
2023-02-15T08:47:29.337Z,51.20
2023-02-15T08:52:33.366Z,50.80
2023-02-15T08:57:38.659Z,51.20
2023-02-15T09:02:42.666Z,51.20
2023-02-15T09:07:46.864Z,51.30
2023-02-15T09:12:52.268Z,51.30
2023-02-15T09:17:56.284Z,51.50
2023-02-15T09:23:02.165Z,52.00
2023-02-15T09:28:06.279Z,51.70
2023-02-15T09:33:10.534Z,52.10
2023-02-15T09:38:16.018Z,51.80
2023-02-15T09:43:52.095Z,51.20
2023-02-15T09:49:07.860Z,51.60
2023-02-15T09:54:21.697Z,51.60
2023-02-15T09:59:37.408Z,51.60
2023-02-15T10:04:51.880Z,51.60
2023-02-15T10:10:02.007Z,51.70
2023-02-15T10:15:30.290Z,51.30
2023-02-15T10:21:11.439Z,51.20
2023-02-15T10:26:24.124Z,51.10
2023-02-15T10:31:35.367Z,51.10
2023-02-15T10:36:54.616Z,51.60
2023-02-15T10:42:22.905Z,50.50
2023-02-15T10:48:05.086Z,51.00
2023-02-15T10:53:27.883Z,51.10
2023-02-15T10:58:46.448Z,51.30
2023-02-15T11:04:11.909Z,51.60
2023-02-15T11:09:19.574Z,51.10
2023-02-15T11:14:44.593Z,51.30
2023-02-15T11:20:27.097Z,51.50
2023-02-15T11:25:34.204Z,51.30
2023-02-15T11:30:46.927Z,51.20
2023-02-15T11:36:14.299Z,50.70
2023-02-15T11:41:22.138Z,50.40
2023-02-15T11:46:26.694Z,50.20
2023-02-15T11:51:30.796Z,50.70
2023-02-15T11:56:36.087Z,50.50
2023-02-15T12:01:45.637Z,50.80
2023-02-15T12:07:04.593Z,51.50
2023-02-15T12:12:26.062Z,51.00
2023-02-15T12:17:56.255Z,50.90
2023-02-15T12:23:26.692Z,50.80
2023-02-15T12:29:02.937Z,50.80
2023-02-15T12:34:16.076Z,50.80
2023-02-15T12:39:23.589Z,51.00
2023-02-15T12:44:32.953Z,51.10
2023-02-15T12:49:38.948Z,51.60
2023-02-15T12:54:44.223Z,51.10
2023-02-15T12:59:59.176Z,51.10
2023-02-15T13:05:17.524Z,51.30
2023-02-15T13:10:37.417Z,50.70
2023-02-15T13:15:42.772Z,50.70
2023-02-15T13:20:48.084Z,50.70
2023-02-15T13:25:53.099Z,50.60
2023-02-15T13:30:58.154Z,50.30
2023-02-15T13:36:02.304Z,51.00
2023-02-15T13:41:12.723Z,51.00
2023-02-15T13:46:58.360Z,51.20
2023-02-15T13:52:12.715Z,51.70
2023-02-15T13:57:45.668Z,51.70
2023-02-15T14:03:11.134Z,51.40
2023-02-15T14:08:24.176Z,51.20
2023-02-15T14:13:48.462Z,51.30
2023-02-15T14:19:00.489Z,51.70
2023-02-15T14:24:33.429Z,51.50
2023-02-15T14:29:58.765Z,51.50
2023-02-15T14:35:05.369Z,51.90
2023-02-15T14:40:37.450Z,51.70
2023-02-15T14:46:17.069Z,51.80
2023-02-15T14:51:44.679Z,51.70
2023-02-15T14:57:04.837Z,51.80
2023-02-15T15:02:09.104Z,52.00
2023-02-15T15:07:20.607Z,51.70
2023-02-15T15:12:27.410Z,51.70
2023-02-15T15:17:34.794Z,52.40
2023-02-15T15:22:41.937Z,51.90
2023-02-15T15:27:55.496Z,51.90
2023-02-15T15:33:26.608Z,52.40
2023-02-15T15:38:36.758Z,52.10
2023-02-15T15:44:18.269Z,52.30
2023-02-15T15:49:28.473Z,52.30
2023-02-15T15:54:33.362Z,52.30
2023-02-15T15:59:38.045Z,52.40
2023-02-15T16:04:43.398Z,52.90
2023-02-15T16:10:01.554Z,52.30
2023-02-15T16:15:15.799Z,53.00
2023-02-15T16:20:35.358Z,53.10
2023-02-15T16:26:15.235Z,53.20
2023-02-15T16:31:26.279Z,53.50
2023-02-15T16:36:31.089Z,53.00
2023-02-15T16:41:38.098Z,52.00
2023-02-15T16:46:49.270Z,52.90
2023-02-15T16:52:10.409Z,52.40
2023-02-15T16:57:23.389Z,52.80
2023-02-15T17:02:54.421Z,54.00
2023-02-15T17:08:21.622Z,53.30
2023-02-15T17:13:28.560Z,53.10
2023-02-15T17:18:48.299Z,52.90
2023-02-15T17:24:02.038Z,52.60
2023-02-15T17:29:31.509Z,52.70
2023-02-15T17:35:11.660Z,52.90
2023-02-15T17:40:25.769Z,52.40
2023-02-15T17:45:46.242Z,52.50
2023-02-15T17:50:51.385Z,53.10
2023-02-15T17:55:59.133Z,53.20
2023-02-15T18:01:29.389Z,52.80
2023-02-15T18:06:59.090Z,53.20
2023-02-15T18:12:26.626Z,52.90
2023-02-15T18:17:43.453Z,52.90
2023-02-15T18:22:56.265Z,53.10
2023-02-15T18:28:03.093Z,53.40
2023-02-15T18:33:31.053Z,53.20
2023-02-15T18:38:40.752Z,52.10
2023-02-15T18:43:49.465Z,51.00
2023-02-15T18:49:00.660Z,50.70
2023-02-15T18:54:18.513Z,50.70
2023-02-15T18:59:26.265Z,50.20
2023-02-15T19:04:35.093Z,50.60
2023-02-15T19:09:42.256Z,51.30
2023-02-15T19:14:48.991Z,51.60
2023-02-15T19:19:56.018Z,52.60
2023-02-15T19:25:04.537Z,53.10
2023-02-15T19:30:23.284Z,54.30
2023-02-15T19:35:36.398Z,53.90
2023-02-15T19:40:44.237Z,54.80
2023-02-15T19:45:55.096Z,54.50
2023-02-15T19:51:02.034Z,54.70
2023-02-15T19:56:34.898Z,55.80
2023-02-15T20:01:44.028Z,55.70
2023-02-15T20:06:52.559Z,56.80
2023-02-15T20:11:59.441Z,57.30
2023-02-15T20:17:08.523Z,57.70
2023-02-15T20:22:30.236Z,57.20
2023-02-15T20:27:38.602Z,57.30
2023-02-15T20:32:47.964Z,56.80
2023-02-15T20:38:01.536Z,57.30
2023-02-15T20:43:16.712Z,58.30
2023-02-15T20:48:23.414Z,57.10
2023-02-15T20:53:37.937Z,56.50
2023-02-15T20:58:44.084Z,56.50
2023-02-15T21:03:50.479Z,56.90
2023-02-15T21:08:57.917Z,56.80
2023-02-15T21:14:06.054Z,57.50
2023-02-15T21:19:16.435Z,58.00
2023-02-15T21:24:29.684Z,57.70
2023-02-15T21:29:36.662Z,57.40
2023-02-15T21:34:42.724Z,57.90
2023-02-15T21:39:49.608Z,58.90
2023-02-15T21:45:13.545Z,58.50
2023-02-15T21:50:44.100Z,58.80
2023-02-15T21:55:50.061Z,59.40
2023-02-15T22:00:58.015Z,60.00
2023-02-15T22:06:03.736Z,59.80
2023-02-15T22:11:14.288Z,60.70
2023-02-15T22:16:23.121Z,60.50
2023-02-15T22:21:27.817Z,63.30
2023-02-15T22:26:33.260Z,62.50
2023-02-15T22:31:37.405Z,62.30
2023-02-15T22:36:41.527Z,61.80
2023-02-15T22:41:45.776Z,62.10
2023-02-15T22:46:49.744Z,64.20
2023-02-15T22:51:54.338Z,65.50
2023-02-15T22:56:58.795Z,65.10
2023-02-15T23:02:03.739Z,64.20
2023-02-15T23:07:17.080Z,64.10
2023-02-15T23:12:27.025Z,64.10
2023-02-15T23:17:31.315Z,63.90
2023-02-15T23:22:35.455Z,64.70
2023-02-15T23:27:58.390Z,62.80
2023-02-15T23:33:02.953Z,62.40
2023-02-15T23:38:19.992Z,61.20
2023-02-15T23:43:24.001Z,61.20
2023-02-15T23:48:39.241Z,61.70
2023-02-15T23:53:43.426Z,60.80
2023-02-15T23:58:47.665Z,61.00
